Shin Puropan Maru — JG5508 — position and weather

sailwx.info

Track history (hours):
 
Tides and Currents Weather Stations Pressure Air Temp Water Temp Dewpoint Dewpoint Depression Visibility Wind Speed Wind Dir Waves Ship Positions

Shin Puropan Maru

Last reported at 2014-Aug-01 09:09 UTC. Time now 2014-Aug-01 09:51 UTC.
Position N 34°55' E 139°18'.

Length 66 m; draft 4.6 m.

Type: Ship (hazmat cat A). MMSI: 431100348.

Date/timePositionNaut miles runAvg speedWind from/ knotsBaromVisibWave heightAir tempDewpointWater temp
2014-Aug-01 09:09N 34°55' E 139°18'711.0
2014-Aug-01 08:32N 34°59' E 139°25'1111.0
2014-Aug-01 07:33N 35°05' E 139°36'1211.6
2014-Aug-01 06:33N 35°13' E 139°46'1111.1
2014-Aug-01 05:33N 35°23' E 139°42'1111.4
2014-Aug-01 04:33N 35°30' E 139°53'10 9.7
2014-Aug-01 03:33N 35°33' E 140°05'0 0.1
2014-Aug-01 02:31N 35°33' E 140°05'0 0.0
2014-Aug-01 01:25N 35°33' E 140°05'0 0.0
2014-Aug-01 00:31N 35°33' E 140°05'0 0.2
2014-Jul-31 23:33N 35°33' E 140°05'7 7.4
2014-Jul-31 22:33N 35°30' E 139°56'2 2.3
2014-Jul-31 21:31N 35°29' E 139°54'0 0.0
2014-Jul-31 20:31N 35°29' E 139°54'0 0.0
2014-Jul-31 19:31N 35°29' E 139°54'0 0.0
2014-Jul-31 18:31N 35°29' E 139°54'0 0.0
2014-Jul-31 17:28N 35°29' E 139°54'0 0.0
2014-Jul-31 16:31N 35°29' E 139°54'0 0.0
2014-Jul-31 15:31N 35°29' E 139°54'0 0.0
2014-Jul-31 14:28N 35°29' E 139°54'0 0.0
2014-Jul-31 13:28N 35°29' E 139°54'0 0.0
2014-Jul-31 12:31N 35°29' E 139°54'0 0.0
2014-Jul-31 11:31N 35°29' E 139°54'0 0.0
2014-Jul-31 10:31N 35°29' E 139°54'0 0.0
2014-Jul-31 09:31N 35°29' E 139°54'0 0.0
2014-Jul-31 08:31N 35°29' E 139°54'0 0.0
2014-Jul-31 07:31N 35°29' E 139°54'0 0.0
2014-Jul-31 06:31N 35°29' E 139°54'0 0.0
2014-Jul-31 05:28N 35°29' E 139°54'0 0.1
2014-Jul-31 04:31N 35°29' E 139°54'0 0.0
2014-Jul-31 03:31N 35°29' E 139°54'0 0.0
2014-Jul-31 02:31N 35°29' E 139°54'0 0.0
2014-Jul-31 01:28N 35°29' E 139°54'0 0.0
2014-Jul-31 00:28N 35°29' E 139°54'0 0.0
2014-Jul-30 23:31N 35°29' E 139°54'0 0.0
2014-Jul-30 22:31N 35°29' E 139°54'0 0.0
2014-Jul-30 21:31N 35°29' E 139°54'0 0.0
2014-Jul-30 20:28N 35°29' E 139°54'0 0.0
2014-Jul-30 19:31N 35°29' E 139°54'0 0.0
2014-Jul-30 18:28N 35°29' E 139°54'8 8.9
2014-Jul-30 17:33N 35°24' E 139°46'1211.7
2014-Jul-30 16:33N 35°12' E 139°47'1211.6
2014-Jul-30 15:33N 35°03' E 139°39'1312.5
2014-Jul-30 14:32N 34°54' E 139°28'5 0.2
2014-Jul-29 06:34N 34°59' E 139°26'1212.0
2014-Jul-29 05:34N 35°05' E 139°38'1211.7
2014-Jul-29 04:34N 35°15' E 139°46'1010.4
2014-Jul-29 03:34N 35°25' E 139°45'1212.3
2014-Jul-29 02:34N 35°32' E 139°57'6 5.6
2014-Jul-29 01:26N 35°33' E 140°05'0 0.0
2014-Jul-29 00:32N 35°33' E 140°05'0 0.0
2014-Jul-28 23:32N 35°33' E 140°05'0 0.3
2014-Jul-28 22:33N 35°33' E 140°05'7 7.1
2014-Jul-28 21:34N 35°30' E 139°57'2 2.0
2014-Jul-28 20:31N 35°29' E 139°55'0 0.0
2014-Jul-28 19:28N 35°29' E 139°55'0 0.0
2014-Jul-28 18:28N 35°29' E 139°55'0 0.0
2014-Jul-28 17:33N 35°29' E 139°55'10 9.9
2014-Jul-28 16:33N 35°23' E 139°46'1111.5
2014-Jul-28 15:33N 35°11' E 139°47'1211.7
2014-Jul-28 14:33N 35°01' E 139°39'1313.2
2014-Jul-28 13:33N 34°53' E 139°27'  
2014-Jul-26 07:21N 34°01' E 135°01'1012.1
2014-Jul-26 06:30N 34°11' E 134°59'1212.6
2014-Jul-26 05:34N 34°23' E 135°02'1312.6
2014-Jul-26 04:34N 34°31' E 135°14'1010.0
2014-Jul-26 03:33N 34°36' E 135°24'3 2.2
2014-Jul-26 02:24N 34°34' E 135°26'0 0.0
2014-Jul-26 01:24N 34°34' E 135°26'0 0.0
2014-Jul-26 00:30N 34°34' E 135°26'0 0.1
2014-Jul-25 23:33N 34°34' E 135°26'6 5.7
2014-Jul-25 22:33N 34°34' E 135°19'1212.2
2014-Jul-25 21:33N 34°25' E 135°08'1211.6
2014-Jul-25 20:30N 34°15' E 134°59'1111.9
2014-Jul-25 19:33N 34°04' E 135°01'5 0.1
2014-Jul-24 06:08N 33°59' E 135°01'911.6
2014-Jul-24 05:23N 34°08' E 134°60'2212.1
2014-Jul-24 03:34N 34°28' E 135°10'1312.5
2014-Jul-24 02:33N 34°36' E 135°22'3 2.4
2014-Jul-24 01:11N 34°34' E 135°26'0 0.0
2014-Jul-24 00:29N 34°34' E 135°26'1 0.5
2014-Jul-23 22:34N 34°35' E 135°25'2 0.9
2014-Jul-23 20:33N 34°36' E 135°23'0 0.0
2014-Jul-23 19:33N 34°36' E 135°23'0 0.0
2014-Jul-23 18:33N 34°36' E 135°23'0 0.0
2014-Jul-23 17:15N 34°36' E 135°23'0 0.0
2014-Jul-23 16:27N 34°36' E 135°23'0 0.0
2014-Jul-23 15:09N 34°36' E 135°23'0 0.0
2014-Jul-23 14:33N 34°36' E 135°23'0 0.0
2014-Jul-23 13:33N 34°36' E 135°23'0 0.0
2014-Jul-23 11:27N 34°36' E 135°23'0 0.0
2014-Jul-23 09:27N 34°36' E 135°23'8 9.0
2014-Jul-23 08:32N 34°30' E 135°15'1212.7
2014-Jul-23 07:34N 34°22' E 135°04'1212.1
2014-Jul-23 06:33N 34°10' E 134°60'207 9.8
2014-Jul-22 09:30N 34°46' E 139°07'  
Track history (hours):
 
Tides and Currents Weather Stations Pressure Air Temp Water Temp Dewpoint Dewpoint Depression Visibility Wind Speed Wind Dir Waves Ship Positions

Shin Puropan Maru

Last reported at 2014-Aug-01 09:09 UTC. Time now 2014-Aug-01 09:51 UTC.
Position N 34°55' E 139°18'.

Length 66 m; draft 4.6 m.

Type: Ship (hazmat cat A). MMSI: 431100348.

Date/timePositionNaut miles runAvg speedWind from/ knotsBaromVisibWave heightAir tempDewpointWater temp
2014-Aug-01 09:09N 34°55' E 139°18'711.0
2014-Aug-01 08:32N 34°59' E 139°25'1111.0
2014-Aug-01 07:33N 35°05' E 139°36'1211.6
2014-Aug-01 06:33N 35°13' E 139°46'1111.1
2014-Aug-01 05:33N 35°23' E 139°42'1111.4
2014-Aug-01 04:33N 35°30' E 139°53'10 9.7
2014-Aug-01 03:33N 35°33' E 140°05'0 0.1
2014-Aug-01 02:31N 35°33' E 140°05'0 0.0
2014-Aug-01 01:25N 35°33' E 140°05'0 0.0
2014-Aug-01 00:31N 35°33' E 140°05'0 0.2
2014-Jul-31 23:33N 35°33' E 140°05'7 7.4
2014-Jul-31 22:33N 35°30' E 139°56'2 2.3
2014-Jul-31 21:31N 35°29' E 139°54'0 0.0
2014-Jul-31 20:31N 35°29' E 139°54'0 0.0
2014-Jul-31 19:31N 35°29' E 139°54'0 0.0
2014-Jul-31 18:31N 35°29' E 139°54'0 0.0
2014-Jul-31 17:28N 35°29' E 139°54'0 0.0
2014-Jul-31 16:31N 35°29' E 139°54'0 0.0
2014-Jul-31 15:31N 35°29' E 139°54'0 0.0
2014-Jul-31 14:28N 35°29' E 139°54'0 0.0
2014-Jul-31 13:28N 35°29' E 139°54'0 0.0
2014-Jul-31 12:31N 35°29' E 139°54'0 0.0
2014-Jul-31 11:31N 35°29' E 139°54'0 0.0
2014-Jul-31 10:31N 35°29' E 139°54'0 0.0
2014-Jul-31 09:31N 35°29' E 139°54'0 0.0
2014-Jul-31 08:31N 35°29' E 139°54'0 0.0
2014-Jul-31 07:31N 35°29' E 139°54'0 0.0
2014-Jul-31 06:31N 35°29' E 139°54'0 0.0
2014-Jul-31 05:28N 35°29' E 139°54'0 0.1
2014-Jul-31 04:31N 35°29' E 139°54'0 0.0
2014-Jul-31 03:31N 35°29' E 139°54'0 0.0
2014-Jul-31 02:31N 35°29' E 139°54'0 0.0
2014-Jul-31 01:28N 35°29' E 139°54'0 0.0
2014-Jul-31 00:28N 35°29' E 139°54'0 0.0
2014-Jul-30 23:31N 35°29' E 139°54'0 0.0
2014-Jul-30 22:31N 35°29' E 139°54'0 0.0
2014-Jul-30 21:31N 35°29' E 139°54'0 0.0
2014-Jul-30 20:28N 35°29' E 139°54'0 0.0
2014-Jul-30 19:31N 35°29' E 139°54'0 0.0
2014-Jul-30 18:28N 35°29' E 139°54'8 8.9
2014-Jul-30 17:33N 35°24' E 139°46'1211.7
2014-Jul-30 16:33N 35°12' E 139°47'1211.6
2014-Jul-30 15:33N 35°03' E 139°39'1312.5
2014-Jul-30 14:32N 34°54' E 139°28'5 0.2
2014-Jul-29 06:34N 34°59' E 139°26'1212.0
2014-Jul-29 05:34N 35°05' E 139°38'1211.7
2014-Jul-29 04:34N 35°15' E 139°46'1010.4
2014-Jul-29 03:34N 35°25' E 139°45'1212.3
2014-Jul-29 02:34N 35°32' E 139°57'6 5.6
2014-Jul-29 01:26N 35°33' E 140°05'0 0.0
2014-Jul-29 00:32N 35°33' E 140°05'0 0.0
2014-Jul-28 23:32N 35°33' E 140°05'0 0.3
2014-Jul-28 22:33N 35°33' E 140°05'7 7.1
2014-Jul-28 21:34N 35°30' E 139°57'2 2.0
2014-Jul-28 20:31N 35°29' E 139°55'0 0.0
2014-Jul-28 19:28N 35°29' E 139°55'0 0.0
2014-Jul-28 18:28N 35°29' E 139°55'0 0.0
2014-Jul-28 17:33N 35°29' E 139°55'10 9.9
2014-Jul-28 16:33N 35°23' E 139°46'1111.5
2014-Jul-28 15:33N 35°11' E 139°47'1211.7
2014-Jul-28 14:33N 35°01' E 139°39'1313.2
2014-Jul-28 13:33N 34°53' E 139°27'  
2014-Jul-26 07:21N 34°01' E 135°01'1012.1
2014-Jul-26 06:30N 34°11' E 134°59'1212.6
2014-Jul-26 05:34N 34°23' E 135°02'1312.6
2014-Jul-26 04:34N 34°31' E 135°14'1010.0
2014-Jul-26 03:33N 34°36' E 135°24'3 2.2
2014-Jul-26 02:24N 34°34' E 135°26'0 0.0
2014-Jul-26 01:24N 34°34' E 135°26'0 0.0
2014-Jul-26 00:30N 34°34' E 135°26'0 0.1
2014-Jul-25 23:33N 34°34' E 135°26'6 5.7
2014-Jul-25 22:33N 34°34' E 135°19'1212.2
2014-Jul-25 21:33N 34°25' E 135°08'1211.6
2014-Jul-25 20:30N 34°15' E 134°59'1111.9
2014-Jul-25 19:33N 34°04' E 135°01'5 0.1
2014-Jul-24 06:08N 33°59' E 135°01'911.6
2014-Jul-24 05:23N 34°08' E 134°60'2212.1
2014-Jul-24 03:34N 34°28' E 135°10'1312.5
2014-Jul-24 02:33N 34°36' E 135°22'3 2.4
2014-Jul-24 01:11N 34°34' E 135°26'0 0.0
2014-Jul-24 00:29N 34°34' E 135°26'1 0.5
2014-Jul-23 22:34N 34°35' E 135°25'2 0.9
2014-Jul-23 20:33N 34°36' E 135°23'0 0.0
2014-Jul-23 19:33N 34°36' E 135°23'0 0.0
2014-Jul-23 18:33N 34°36' E 135°23'0 0.0
2014-Jul-23 17:15N 34°36' E 135°23'0 0.0
2014-Jul-23 16:27N 34°36' E 135°23'0 0.0
2014-Jul-23 15:09N 34°36' E 135°23'0 0.0
2014-Jul-23 14:33N 34°36' E 135°23'0 0.0
2014-Jul-23 13:33N 34°36' E 135°23'0 0.0
2014-Jul-23 11:27N 34°36' E 135°23'0 0.0
2014-Jul-23 09:27N 34°36' E 135°23'8 9.0
2014-Jul-23 08:32N 34°30' E 135°15'1212.7
2014-Jul-23 07:34N 34°22' E 135°04'1212.1
2014-Jul-23 06:33N 34°10' E 134°60'207 9.8
2014-Jul-22 09:30N 34°46' E 139°07'  

Dump ship's entire track history